Time;durP1;ratioP1;P1;durP2;ratioP2;P2;SDS_P1;SDS_P2;PMS_P1;PMS_P2;Temp;Humidity;BMP_temperature;BMP_pressure;BME280_temperature;BME280_humidity;BME280_pressure;Samples;Min_cycle;Max_cycle;Signal;HPM_P1;HPM_P2
2022/04/20 00:00:28;;;;;;;4.78;1.70;;;;;;;;;;5063153;28;20374;-72
2022/04/20 00:02:54;;;;;;;5.95;1.90;;;;;;;;;;5063505;28;20041;-71
2022/04/20 00:05:20;;;;;;;8.20;1.55;;;;;;;;;;5057813;28;20029;-72
2022/04/20 00:07:46;;;;;;;3.83;1.48;;;;;;;;;;5059028;28;20033;-72
2022/04/20 00:10:12;;;;;;;6.55;2.17;;;;;;;;;;5064620;28;20032;-72
2022/04/20 00:12:38;;;;;;;4.97;1.40;;;;;;;;;;5054079;28;20033;-72
2022/04/20 00:15:05;;;;;;;8.77;2.20;;;;;;;;;;5054206;28;20033;-72
2022/04/20 00:17:31;;;;;;;6.57;1.05;;;;;;;;;;5063890;28;20650;-72
2022/04/20 00:19:57;;;;;;;3.28;0.70;;;;;;;;;;5070299;28;20056;-72
2022/04/20 00:22:23;;;;;;;5.22;1.50;;;;;;;;;;5065202;28;20071;-72
2022/04/20 00:24:49;;;;;;;5.35;1.40;;;;;;;;;;5062951;28;20047;-72
2022/04/20 00:27:15;;;;;;;4.43;1.35;;;;;;;;;;5056868;28;20035;-72
2022/04/20 00:29:41;;;;;;;3.50;1.55;;;;;;;;;;5069870;28;20772;-72
2022/04/20 00:32:07;;;;;;;5.95;1.50;;;;;;;;;;5061390;28;20751;-72
2022/04/20 00:34:33;;;;;;;7.10;1.35;;;;;;;;;;5063145;28;20032;-72
2022/04/20 00:36:59;;;;;;;3.75;1.08;;;;;;;;;;5061618;28;20037;-72
2022/04/20 00:39:25;;;;;;;5.30;1.38;;;;;;;;;;5061896;28;20038;-72
2022/04/20 00:41:54;;;;;;;4.78;1.63;;;;;;;;;;5078082;28;20368;-72
2022/04/20 00:44:21;;;;;;;9.63;2.05;;;;;;;;;;5069040;28;20219;-72
2022/04/20 00:46:48;;;;;;;7.40;1.92;;;;;;;;;;5061826;28;20036;-72
2022/04/20 00:49:15;;;;;;;7.47;1.98;;;;;;;;;;5061562;28;20036;-72
2022/04/20 00:52:01;;;;;;;6.05;1.73;;;;;;;;;;5040398;28;20057;-72
2022/04/20 00:54:27;;;;;;;11.82;2.42;;;;;;;;;;5049633;28;20037;-71
2022/04/20 00:56:53;;;;;;;5.72;1.30;;;;;;;;;;5058965;28;20044;-72
2022/04/20 00:59:20;;;;;;;4.68;1.73;;;;;;;;;;5069815;28;20457;-71
2022/04/20 01:01:46;;;;;;;3.95;1.30;;;;;;;;;;5063000;28;20405;-72
2022/04/20 01:04:12;;;;;;;3.50;1.33;;;;;;;;;;5058500;28;20033;-71
2022/04/20 01:06:39;;;;;;;4.60;1.30;;;;;;;;;;5053797;28;20020;-72
2022/04/20 01:09:05;;;;;;;9.50;1.33;;;;;;;;;;5069413;28;20746;-72
2022/04/20 01:11:31;;;;;;;3.33;1.02;;;;;;;;;;5065845;28;20040;-72
2022/04/20 01:13:57;;;;;;;5.38;1.27;;;;;;;;;;5075131;28;20040;-72
2022/04/20 01:16:23;;;;;;;4.88;1.20;;;;;;;;;;5052409;28;20037;-72
2022/04/20 01:18:53;;;;;;;3.80;1.08;;;;;;;;;;5053381;28;20178;-72
2022/04/20 01:21:19;;;;;;;6.78;1.48;;;;;;;;;;5048873;28;20024;-72
2022/04/20 01:23:45;;;;;;;5.70;1.48;;;;;;;;;;5062928;28;20040;-72
2022/04/20 01:26:11;;;;;;;7.32;1.27;;;;;;;;;;5057589;28;20036;-72
2022/04/20 01:28:38;;;;;;;4.22;1.00;;;;;;;;;;5059472;28;20394;-72
2022/04/20 01:31:05;;;;;;;4.07;0.98;;;;;;;;;;5046807;28;20056;-72
2022/04/20 01:33:31;;;;;;;4.65;1.10;;;;;;;;;;5050577;28;20097;-72
2022/04/20 01:35:57;;;;;;;4.30;0.93;;;;;;;;;;5068963;28;20039;-72
2022/04/20 01:38:23;;;;;;;4.45;1.17;;;;;;;;;;5049415;28;20037;-72
2022/04/20 01:40:49;;;;;;;3.05;0.85;;;;;;;;;;5049057;28;20041;-71
2022/04/20 01:43:15;;;;;;;6.00;1.23;;;;;;;;;;5048263;28;20470;-72
2022/04/20 01:45:41;;;;;;;7.78;2.83;;;;;;;;;;5065692;28;20047;-71
2022/04/20 01:48:07;;;;;;;10.38;3.00;;;;;;;;;;5068174;28;20743;-72
2022/04/20 01:51:46;;;;;;;8.95;2.85;;;;;;;;;;5067201;28;20028;-72
2022/04/20 01:53:20;;;;;;;10.55;2.92;;;;;;;;;;5067179;28;20049;-72
2022/04/20 01:55:46;;;;;;;9.15;2.97;;;;;;;;;;5063080;28;20044;-72
2022/04/20 01:58:12;;;;;;;9.27;3.10;;;;;;;;;;5068478;28;20111;-72
2022/04/20 02:00:38;;;;;;;8.73;2.20;;;;;;;;;;5059100;28;20421;-72
2022/04/20 02:03:04;;;;;;;10.18;3.00;;;;;;;;;;5067512;28;20036;-72
2022/04/20 02:05:30;;;;;;;8.20;2.28;;;;;;;;;;5056464;28;20070;-71
2022/04/20 02:07:57;;;;;;;8.23;2.20;;;;;;;;;;5051928;28;20929;-72
2022/04/20 02:10:23;;;;;;;8.63;2.65;;;;;;;;;;5060220;28;20124;-72
2022/04/20 02:12:49;;;;;;;8.05;2.17;;;;;;;;;;5063030;28;20090;-72
2022/04/20 02:15:15;;;;;;;11.50;1.90;;;;;;;;;;5056106;28;20029;-73
2022/04/20 02:17:41;;;;;;;6.90;1.80;;;;;;;;;;5064816;28;20477;-72
2022/04/20 02:20:07;;;;;;;7.53;1.85;;;;;;;;;;5055774;28;20029;-72
2022/04/20 02:22:33;;;;;;;5.25;2.25;;;;;;;;;;5054989;28;20078;-72
2022/04/20 02:24:59;;;;;;;8.98;1.80;;;;;;;;;;5068365;28;20028;-72
2022/04/20 02:27:26;;;;;;;7.63;1.60;;;;;;;;;;5059362;28;20081;-72
2022/04/20 02:29:52;;;;;;;5.68;1.95;;;;;;;;;;5064293;28;20037;-72
2022/04/20 02:32:18;;;;;;;9.80;2.03;;;;;;;;;;5046818;28;20426;-72
2022/04/20 02:34:44;;;;;;;7.25;1.83;;;;;;;;;;5057963;28;20036;-71
2022/04/20 02:37:10;;;;;;;5.95;2.00;;;;;;;;;;5063738;28;20037;-71
2022/04/20 02:39:37;;;;;;;8.45;1.95;;;;;;;;;;5055811;28;20036;-72
2022/04/20 02:42:04;;;;;;;6.97;1.70;;;;;;;;;;5062334;28;20037;-71
2022/04/20 02:44:30;;;;;;;4.70;1.60;;;;;;;;;;5047811;28;20092;-72
2022/04/20 02:46:57;;;;;;;6.88;1.88;;;;;;;;;;5068717;28;20033;-72
2022/04/20 02:49:23;;;;;;;11.15;1.90;;;;;;;;;;5055727;28;20476;-71
2022/04/20 02:51:49;;;;;;;6.25;1.92;;;;;;;;;;5063137;28;20828;-72
2022/04/20 02:54:16;;;;;;;7.47;2.17;;;;;;;;;;5059213;28;20052;-71
2022/04/20 02:56:42;;;;;;;13.73;2.67;;;;;;;;;;5069037;28;20032;-74
2022/04/20 02:59:08;;;;;;;8.68;2.40;;;;;;;;;;5066179;28;20043;-72
2022/04/20 03:01:34;;;;;;;9.48;3.22;;;;;;;;;;5053766;28;20389;-72
2022/04/20 03:04:00;;;;;;;9.25;2.85;;;;;;;;;;5052463;28;20044;-72
2022/04/20 03:06:29;;;;;;;12.23;2.53;;;;;;;;;;5057515;28;20028;-72
2022/04/20 03:08:55;;;;;;;10.90;2.72;;;;;;;;;;5066963;28;20036;-72
2022/04/20 03:11:22;;;;;;;11.15;2.67;;;;;;;;;;5051645;28;20055;-72
2022/04/20 03:13:48;;;;;;;9.00;2.80;;;;;;;;;;5061113;28;20033;-72
2022/04/20 03:16:15;;;;;;;8.15;2.65;;;;;;;;;;5067709;28;20036;-72
2022/04/20 03:18:41;;;;;;;8.55;2.65;;;;;;;;;;5071898;28;20453;-72
2022/04/20 03:21:07;;;;;;;9.82;2.50;;;;;;;;;;5053189;28;20390;-72
2022/04/20 03:23:33;;;;;;;7.45;2.35;;;;;;;;;;5071420;28;20590;-72
2022/04/20 03:26:00;;;;;;;12.05;2.83;;;;;;;;;;5071053;28;20111;-72
2022/04/20 03:28:26;;;;;;;7.85;2.25;;;;;;;;;;5063004;28;20407;-72
2022/04/20 03:30:52;;;;;;;7.93;2.50;;;;;;;;;;5070850;28;20398;-72
2022/04/20 03:33:18;;;;;;;6.97;2.30;;;;;;;;;;5075007;28;20037;-71
2022/04/20 03:35:44;;;;;;;8.43;2.00;;;;;;;;;;5067296;28;20029;-72
2022/04/20 03:38:11;;;;;;;13.25;3.05;;;;;;;;;;5068396;28;20032;-72
2022/04/20 03:40:37;;;;;;;12.63;3.35;;;;;;;;;;5070893;28;20036;-71
2022/04/20 03:43:03;;;;;;;11.90;2.97;;;;;;;;;;5070153;28;20490;-72
2022/04/20 03:45:29;;;;;;;11.32;3.28;;;;;;;;;;5068678;28;20035;-71
2022/04/20 03:47:55;;;;;;;10.13;3.30;;;;;;;;;;5059265;28;20351;-72
2022/04/20 03:50:21;;;;;;;18.92;4.57;;;;;;;;;;5069262;28;20039;-71
2022/04/20 03:52:47;;;;;;;9.63;3.70;;;;;;;;;;5066880;28;20052;-72
2022/04/20 03:55:13;;;;;;;10.57;3.25;;;;;;;;;;5066497;28;20115;-71
2022/04/20 03:57:40;;;;;;;19.00;3.60;;;;;;;;;;5061287;28;20553;-72
2022/04/20 04:00:07;;;;;;;10.77;2.60;;;;;;;;;;5056614;28;20072;-72
2022/04/20 04:02:33;;;;;;;16.10;3.15;;;;;;;;;;5070405;28;20024;-71
2022/04/20 04:04:59;;;;;;;14.88;2.75;;;;;;;;;;5065514;28;20031;-74
2022/04/20 04:07:25;;;;;;;10.07;2.88;;;;;;;;;;5070475;28;20040;-73
2022/04/20 04:09:51;;;;;;;13.07;2.92;;;;;;;;;;5067158;28;20513;-74
2022/04/20 04:12:22;;;;;;;7.50;2.95;;;;;;;;;;5066262;28;20375;-73
2022/04/20 04:14:48;;;;;;;10.30;2.67;;;;;;;;;;5060996;28;20719;-73
2022/04/20 04:17:14;;;;;;;8.45;2.85;;;;;;;;;;5067844;28;20036;-73
2022/04/20 04:19:40;;;;;;;8.60;2.78;;;;;;;;;;5060385;28;20041;-73
2022/04/20 04:22:07;;;;;;;9.75;2.83;;;;;;;;;;5070502;28;20098;-74
2022/04/20 04:24:36;;;;;;;21.95;4.00;;;;;;;;;;5069592;28;20047;-73
2022/04/20 04:27:03;;;;;;;9.90;3.25;;;;;;;;;;5070218;28;20474;-73
2022/04/20 04:29:31;;;;;;;7.95;2.63;;;;;;;;;;5070113;28;20045;-73
2022/04/20 04:31:57;;;;;;;11.13;3.05;;;;;;;;;;5066058;28;20427;-73
2022/04/20 04:34:23;;;;;;;9.10;2.45;;;;;;;;;;5065307;28;20075;-73
2022/04/20 04:36:51;;;;;;;8.60;2.50;;;;;;;;;;5067617;28;20237;-73
2022/04/20 04:39:21;;;;;;;8.50;2.50;;;;;;;;;;5058092;28;20172;-73
2022/04/20 04:41:48;;;;;;;14.18;2.65;;;;;;;;;;5062464;28;20033;-73
2022/04/20 04:44:15;;;;;;;9.88;2.33;;;;;;;;;;5060714;28;20141;-74
2022/04/20 04:49:25;;;;;;;9.20;2.55;;;;;;;;;;5077516;28;20055;-73
2022/04/20 04:51:51;;;;;;;7.15;1.83;;;;;;;;;;5069641;28;20028;-74
2022/04/20 04:54:17;;;;;;;9.68;1.92;;;;;;;;;;5069862;28;20072;-73
2022/04/20 04:56:43;;;;;;;9.23;2.25;;;;;;;;;;5051310;28;20040;-73
2022/04/20 04:59:09;;;;;;;10.35;2.03;;;;;;;;;;5072455;28;20048;-73
2022/04/20 05:01:35;;;;;;;11.95;2.33;;;;;;;;;;5067779;28;20039;-73
2022/04/20 05:04:01;;;;;;;6.80;1.63;;;;;;;;;;5056684;28;20025;-72
2022/04/20 05:06:27;;;;;;;6.22;2.35;;;;;;;;;;5056308;28;20541;-73
2022/04/20 05:08:53;;;;;;;6.78;1.80;;;;;;;;;;5069737;28;20048;-73
2022/04/20 05:11:19;;;;;;;9.60;2.05;;;;;;;;;;5058058;28;20033;-73
2022/04/20 05:13:45;;;;;;;9.43;2.22;;;;;;;;;;5065337;28;20656;-73
2022/04/20 05:16:12;;;;;;;8.20;2.20;;;;;;;;;;5059033;28;20041;-73
2022/04/20 05:18:38;;;;;;;10.43;2.60;;;;;;;;;;5069392;28;20372;-74
2022/04/20 05:21:04;;;;;;;10.63;2.72;;;;;;;;;;5051500;28;20536;-74
2022/04/20 05:23:30;;;;;;;15.00;3.03;;;;;;;;;;5063876;28;20089;-71
2022/04/20 05:25:56;;;;;;;14.90;3.33;;;;;;;;;;5068419;28;20024;-73
2022/04/20 05:28:22;;;;;;;12.25;2.88;;;;;;;;;;5068601;28;20110;-73
2022/04/20 05:30:49;;;;;;;13.48;3.05;;;;;;;;;;5068422;28;20028;-74
2022/04/20 05:33:15;;;;;;;17.30;4.03;;;;;;;;;;5062977;28;20791;-73
2022/04/20 05:35:41;;;;;;;16.27;3.85;;;;;;;;;;5069508;28;20060;-73
2022/04/20 05:43:36;;;;;;;18.33;4.63;;;;;;;;;;5060696;28;20060;-74
2022/04/20 05:46:03;;;;;;;21.98;3.95;;;;;;;;;;5054251;28;20402;-73
2022/04/20 05:48:29;;;;;;;21.83;3.97;;;;;;;;;;5049835;28;20102;-73
2022/04/20 05:50:55;;;;;;;20.90;4.00;;;;;;;;;;5059764;28;20033;-73
2022/04/20 05:53:22;;;;;;;21.90;4.38;;;;;;;;;;5073837;28;20047;-73
2022/04/20 05:55:48;;;;;;;13.48;3.30;;;;;;;;;;5069855;28;20103;-73
2022/04/20 05:58:14;;;;;;;14.07;3.05;;;;;;;;;;5066516;28;20086;-73
2022/04/20 06:00:40;;;;;;;13.98;2.95;;;;;;;;;;5065452;28;20032;-73
2022/04/20 06:03:06;;;;;;;9.63;3.17;;;;;;;;;;5063697;28;20036;-73
2022/04/20 06:05:33;;;;;;;8.43;2.90;;;;;;;;;;5062361;28;20021;-73
2022/04/20 06:07:59;;;;;;;7.95;2.20;;;;;;;;;;5069137;28;20135;-73
2022/04/20 06:10:25;;;;;;;8.63;2.30;;;;;;;;;;5058313;28;20519;-74
2022/04/20 06:12:51;;;;;;;10.00;2.25;;;;;;;;;;5068686;28;20040;-73
2022/04/20 06:15:17;;;;;;;13.77;2.70;;;;;;;;;;5058797;28;20021;-73
2022/04/20 06:17:43;;;;;;;7.93;2.42;;;;;;;;;;5065258;28;20038;-73
2022/04/20 06:20:10;;;;;;;12.30;2.33;;;;;;;;;;5064980;28;20116;-74
2022/04/20 06:22:36;;;;;;;13.77;2.63;;;;;;;;;;5060742;28;20029;-74
2022/04/20 06:25:02;;;;;;;13.25;2.53;;;;;;;;;;5066552;28;20063;-73
2022/04/20 06:27:31;;;;;;;15.35;2.45;;;;;;;;;;5067584;28;20024;-74
2022/04/20 06:29:58;;;;;;;7.65;2.80;;;;;;;;;;5065169;28;20036;-74
2022/04/20 06:32:24;;;;;;;9.82;2.65;;;;;;;;;;5067274;28;20028;-74
2022/04/20 06:34:53;;;;;;;10.52;2.60;;;;;;;;;;5068812;28;20099;-73
2022/04/20 06:37:19;;;;;;;12.20;3.63;;;;;;;;;;5065200;28;20825;-73
2022/04/20 06:39:46;;;;;;;10.07;2.50;;;;;;;;;;5049035;28;20032;-74
2022/04/20 06:42:12;;;;;;;10.48;2.30;;;;;;;;;;5066470;28;20095;-74
2022/04/20 06:44:38;;;;;;;13.23;3.08;;;;;;;;;;5067833;28;20093;-74
2022/04/20 06:47:05;;;;;;;10.38;2.95;;;;;;;;;;5066432;28;20556;-73
2022/04/20 06:49:31;;;;;;;10.63;2.20;;;;;;;;;;5064360;28;20055;-74
2022/04/20 07:00:11;;;;;;;11.88;2.85;;;;;;;;;;5071765;28;20056;-74
2022/04/20 07:02:37;;;;;;;9.05;2.90;;;;;;;;;;5071562;28;20031;-74
2022/04/20 07:05:03;;;;;;;13.75;2.75;;;;;;;;;;5068704;28;20033;-74
2022/04/20 07:07:29;;;;;;;12.98;2.45;;;;;;;;;;5066907;28;20025;-74
2022/04/20 07:09:55;;;;;;;11.40;2.70;;;;;;;;;;5072276;28;20154;-74
2022/04/20 07:12:21;;;;;;;9.88;2.28;;;;;;;;;;5071133;28;20032;-74
2022/04/20 07:14:47;;;;;;;11.10;2.30;;;;;;;;;;5065361;28;20036;-74
2022/04/20 07:17:13;;;;;;;12.23;2.90;;;;;;;;;;5059798;28;20150;-74
2022/04/20 07:19:39;;;;;;;8.85;2.33;;;;;;;;;;5072083;28;20041;-74
2022/04/20 07:22:05;;;;;;;10.30;3.03;;;;;;;;;;5067223;28;20023;-74
2022/04/20 07:24:31;;;;;;;10.43;2.30;;;;;;;;;;5068509;28;20581;-74
2022/04/20 07:26:57;;;;;;;9.23;2.17;;;;;;;;;;5068360;28;20640;-74
2022/04/20 07:29:23;;;;;;;9.32;2.22;;;;;;;;;;5069445;28;20050;-74
2022/04/20 07:31:49;;;;;;;7.90;2.22;;;;;;;;;;5066446;28;20024;-74
2022/04/20 07:34:15;;;;;;;7.47;2.30;;;;;;;;;;5068149;28;20468;-74
2022/04/20 07:36:41;;;;;;;9.77;2.63;;;;;;;;;;5065812;28;20052;-74
2022/04/20 07:39:07;;;;;;;8.00;2.22;;;;;;;;;;5068266;28;20478;-74
2022/04/20 07:41:33;;;;;;;4.90;2.05;;;;;;;;;;5064048;28;20035;-74
2022/04/20 07:43:59;;;;;;;9.20;2.17;;;;;;;;;;5065503;28;20059;-74
2022/04/20 07:46:25;;;;;;;6.00;2.03;;;;;;;;;;5065095;28;20028;-74
2022/04/20 07:48:51;;;;;;;3.67;1.50;;;;;;;;;;5064024;28;20041;-74
2022/04/20 07:51:17;;;;;;;5.35;1.80;;;;;;;;;;5069034;28;20029;-74
2022/04/20 07:53:44;;;;;;;6.32;1.63;;;;;;;;;;5071711;28;20120;-74
2022/04/20 07:56:10;;;;;;;8.43;1.92;;;;;;;;;;5070748;28;20043;-74
2022/04/20 07:58:36;;;;;;;7.32;2.03;;;;;;;;;;5064454;28;20037;-74
2022/04/20 08:01:03;;;;;;;7.45;2.25;;;;;;;;;;5069203;28;20074;-74
2022/04/20 08:03:29;;;;;;;11.60;2.15;;;;;;;;;;5071222;28;20040;-74
2022/04/20 08:05:55;;;;;;;7.07;1.70;;;;;;;;;;5073251;28;20439;-74
2022/04/20 08:08:22;;;;;;;10.50;1.98;;;;;;;;;;5067708;28;20119;-74
2022/04/20 08:10:48;;;;;;;9.00;2.00;;;;;;;;;;5070397;28;20074;-74
2022/04/20 08:16:00;;;;;;;9.10;2.47;;;;;;;;;;5058942;28;20087;-74
2022/04/20 08:18:26;;;;;;;7.72;2.00;;;;;;;;;;5063102;28;20051;-74
2022/04/20 08:20:52;;;;;;;7.45;1.88;;;;;;;;;;5066298;28;20051;-74
2022/04/20 08:23:19;;;;;;;7.15;2.17;;;;;;;;;;5070700;28;20037;-74
2022/04/20 08:25:46;;;;;;;6.78;1.83;;;;;;;;;;5070835;28;20024;-74
2022/04/20 08:28:12;;;;;;;7.22;1.65;;;;;;;;;;5064268;28;20033;-74
2022/04/20 08:30:39;;;;;;;8.40;2.00;;;;;;;;;;5076269;28;20028;-74
2022/04/20 08:33:07;;;;;;;7.97;1.63;;;;;;;;;;5071592;28;20037;-74
2022/04/20 08:35:34;;;;;;;6.57;1.42;;;;;;;;;;5062578;28;20480;-74
2022/04/20 08:38:00;;;;;;;7.03;1.88;;;;;;;;;;5070241;28;20052;-74
2022/04/20 08:40:26;;;;;;;7.57;1.52;;;;;;;;;;5069547;28;20355;-74
2022/04/20 08:42:52;;;;;;;11.43;1.77;;;;;;;;;;5071624;28;20032;-74
2022/04/20 08:45:20;;;;;;;7.78;1.88;;;;;;;;;;5067189;28;20476;-74
2022/04/20 08:47:49;;;;;;;7.72;2.05;;;;;;;;;;5067658;28;20474;-74
2022/04/20 08:50:16;;;;;;;9.93;2.20;;;;;;;;;;5070056;28;20770;-74
2022/04/20 08:52:46;;;;;;;8.82;2.42;;;;;;;;;;5075282;28;20102;-74
2022/04/20 08:55:16;;;;;;;6.20;2.03;;;;;;;;;;5069556;28;20032;-74
2022/04/20 08:57:44;;;;;;;9.63;2.25;;;;;;;;;;5068112;28;20077;-74
2022/04/20 09:00:23;;;;;;;12.63;2.03;;;;;;;;;;5064419;28;20040;-74
2022/04/20 09:03:00;;;;;;;6.90;1.90;;;;;;;;;;5070677;28;20025;-74
2022/04/20 09:05:30;;;;;;;9.70;2.60;;;;;;;;;;5064698;28;20027;-74
2022/04/20 09:07:56;;;;;;;9.68;1.80;;;;;;;;;;5071777;28;20032;-74
2022/04/20 09:10:22;;;;;;;6.10;1.50;;;;;;;;;;5069224;28;20393;-74
2022/04/20 09:13:02;;;;;;;8.25;2.30;;;;;;;;;;5069610;28;20363;-74
2022/04/20 09:15:31;;;;;;;4.43;1.77;;;;;;;;;;5061063;28;20107;-74
2022/04/20 09:17:57;;;;;;;6.93;1.70;;;;;;;;;;5065789;28;20037;-74
2022/04/20 09:20:23;;;;;;;8.00;1.90;;;;;;;;;;5068212;28;20028;-74
2022/04/20 09:23:03;;;;;;;5.97;1.55;;;;;;;;;;5070088;28;20056;-75
2022/04/20 09:25:30;;;;;;;5.53;1.50;;;;;;;;;;5064551;28;20063;-75
2022/04/20 09:27:56;;;;;;;3.60;1.25;;;;;;;;;;5066494;28;20036;-75
2022/04/20 09:30:22;;;;;;;7.18;1.40;;;;;;;;;;5069853;28;20027;-74
2022/04/20 09:32:49;;;;;;;5.45;1.55;;;;;;;;;;5066540;28;20390;-74
2022/04/20 09:35:21;;;;;;;8.73;1.73;;;;;;;;;;5060113;28;20032;-75
2022/04/20 09:38:03;;;;;;;8.07;2.10;;;;;;;;;;5069266;28;20115;-75
2022/04/20 09:40:33;;;;;;;6.65;1.42;;;;;;;;;;5053885;28;20040;-74
2022/04/20 09:43:01;;;;;;;7.25;1.55;;;;;;;;;;5069238;28;20408;-75
2022/04/20 09:45:27;;;;;;;7.13;1.55;;;;;;;;;;5069252;28;20029;-75
2022/04/20 09:50:38;;;;;;;6.43;1.65;;;;;;;;;;5054884;28;20814;-75
2022/04/20 09:53:10;;;;;;;4.13;1.20;;;;;;;;;;5068993;28;20071;-75
2022/04/20 09:55:36;;;;;;;3.60;0.90;;;;;;;;;;5069503;28;20059;-75
2022/04/20 09:58:09;;;;;;;3.55;1.08;;;;;;;;;;5067511;28;20040;-74
2022/04/20 10:00:39;;;;;;;9.27;1.73;;;;;;;;;;5069138;28;20162;-75
2022/04/20 10:03:06;;;;;;;6.18;1.38;;;;;;;;;;5064231;28;20044;-72
2022/04/20 10:05:32;;;;;;;5.68;1.45;;;;;;;;;;5069287;28;20025;-75
2022/04/20 10:07:59;;;;;;;5.72;1.20;;;;;;;;;;5071855;28;20028;-75
2022/04/20 10:10:26;;;;;;;3.42;1.30;;;;;;;;;;5069116;28;20078;-75
2022/04/20 10:12:54;;;;;;;8.95;1.60;;;;;;;;;;5069205;28;20036;-74
2022/04/20 10:18:06;;;;;;;4.15;1.20;;;;;;;;;;5067332;28;20055;-75
2022/04/20 10:20:32;;;;;;;4.03;1.10;;;;;;;;;;5069132;28;20046;-75
2022/04/20 10:23:01;;;;;;;5.03;1.30;;;;;;;;;;5072946;28;20032;-75
2022/04/20 10:25:28;;;;;;;3.22;1.15;;;;;;;;;;5075043;28;20751;-75
2022/04/20 10:28:03;;;;;;;5.63;1.58;;;;;;;;;;5073031;28;20035;-75
2022/04/20 10:30:43;;;;;;;6.13;1.30;;;;;;;;;;5064183;28;20036;-75
2022/04/20 10:33:16;;;;;;;5.38;0.98;;;;;;;;;;5066732;28;20036;-75
2022/04/20 10:35:59;;;;;;;4.88;1.75;;;;;;;;;;5058780;28;20032;-75
2022/04/20 10:38:25;;;;;;;6.45;1.10;;;;;;;;;;5071390;28;20485;-75
2022/04/20 10:40:56;;;;;;;13.75;1.33;;;;;;;;;;5072767;28;20070;-75
2022/04/20 10:43:23;;;;;;;7.90;1.50;;;;;;;;;;5065555;28;20599;-75
2022/04/20 10:46:02;;;;;;;4.20;1.40;;;;;;;;;;5069814;28;20040;-75
2022/04/20 10:48:42;;;;;;;9.13;1.30;;;;;;;;;;5071901;28;20110;-75
2022/04/20 10:51:14;;;;;;;7.50;1.48;;;;;;;;;;5072122;28;20081;-75
2022/04/20 10:53:41;;;;;;;10.55;1.42;;;;;;;;;;5060420;28;20106;-75
2022/04/20 10:56:07;;;;;;;7.25;1.30;;;;;;;;;;5061526;28;20131;-75
2022/04/20 10:58:34;;;;;;;4.43;1.42;;;;;;;;;;5065872;28;20073;-75
2022/04/20 11:01:09;;;;;;;4.63;1.40;;;;;;;;;;5072626;28;20032;-75
2022/04/20 11:03:54;;;;;;;5.25;1.40;;;;;;;;;;5072420;28;20692;-75
2022/04/20 11:06:20;;;;;;;3.83;1.20;;;;;;;;;;5052775;28;20078;-75
2022/04/20 11:08:46;;;;;;;6.07;1.50;;;;;;;;;;5072337;28;20375;-75
2022/04/20 11:19:49;;;;;;;7.70;1.20;;;;;;;;;;5067855;28;20043;-75
2022/04/20 11:22:15;;;;;;;4.35;1.40;;;;;;;;;;5063692;28;20052;-75
2022/04/20 11:24:42;;;;;;;9.38;1.30;;;;;;;;;;5054034;28;20404;-75
2022/04/20 11:27:08;;;;;;;7.97;1.10;;;;;;;;;;5060844;28;20032;-75
2022/04/20 11:29:35;;;;;;;5.50;1.00;;;;;;;;;;5068239;28;20043;-75
2022/04/20 11:32:02;;;;;;;15.68;1.50;;;;;;;;;;5069184;28;20808;-75
2022/04/20 11:34:32;;;;;;;5.38;1.10;;;;;;;;;;5071318;28;20036;-75
2022/04/20 11:37:00;;;;;;;3.97;1.15;;;;;;;;;;5071731;28;20383;-76
2022/04/20 11:39:28;;;;;;;4.60;1.15;;;;;;;;;;5063019;28;20040;-75
2022/04/20 11:41:57;;;;;;;3.22;0.82;;;;;;;;;;5068088;28;20032;-75
2022/04/20 11:44:24;;;;;;;5.72;0.90;;;;;;;;;;5059732;28;20460;-75
2022/04/20 11:46:50;;;;;;;8.45;1.00;;;;;;;;;;5063071;28;20029;-75
2022/04/20 11:49:16;;;;;;;3.60;1.05;;;;;;;;;;5055058;28;20113;-75
2022/04/20 11:51:46;;;;;;;7.53;1.50;;;;;;;;;;5070605;28;20695;-75
2022/04/20 11:54:22;;;;;;;5.43;1.25;;;;;;;;;;5071372;28;20082;-74
2022/04/20 11:56:48;;;;;;;6.45;1.42;;;;;;;;;;5063913;28;20497;-75
2022/04/20 11:59:14;;;;;;;12.65;1.42;;;;;;;;;;5063993;28;20142;-75
2022/04/20 12:01:41;;;;;;;2.40;0.93;;;;;;;;;;5070617;28;20470;-75
2022/04/20 12:04:11;;;;;;;3.33;1.02;;;;;;;;;;5070799;28;20028;-75
2022/04/20 12:06:37;;;;;;;3.42;0.90;;;;;;;;;;5056716;28;20477;-75
2022/04/20 12:09:03;;;;;;;5.25;1.10;;;;;;;;;;5071988;28;20115;-75
2022/04/20 12:11:32;;;;;;;4.30;0.80;;;;;;;;;;5060592;28;20032;-75
2022/04/20 12:13:59;;;;;;;2.90;0.80;;;;;;;;;;5071352;28;20043;-75
2022/04/20 12:16:25;;;;;;;5.60;1.20;;;;;;;;;;5060444;28;20032;-75
2022/04/20 12:18:52;;;;;;;7.82;1.13;;;;;;;;;;5076164;28;20041;-75
2022/04/20 12:21:36;;;;;;;4.07;0.80;;;;;;;;;;5071116;28;20556;-75
2022/04/20 12:24:03;;;;;;;4.88;0.70;;;;;;;;;;5068095;28;20081;-75
2022/04/20 12:26:30;;;;;;;6.65;0.85;;;;;;;;;;5070891;28;20388;-75
2022/04/20 12:29:03;;;;;;;5.65;1.10;;;;;;;;;;5068530;28;20033;-75
2022/04/20 12:31:30;;;;;;;5.63;0.95;;;;;;;;;;5069174;28;20679;-75
2022/04/20 12:34:03;;;;;;;6.53;1.35;;;;;;;;;;5070846;28;20170;-75
2022/04/20 12:36:31;;;;;;;2.95;1.17;;;;;;;;;;5070349;28;20587;-75
2022/04/20 12:38:57;;;;;;;7.38;0.82;;;;;;;;;;5070042;28;20079;-75
2022/04/20 12:41:42;;;;;;;6.75;1.13;;;;;;;;;;5070514;28;20504;-75
2022/04/20 12:44:27;;;;;;;3.33;0.93;;;;;;;;;;5069178;28;20103;-75
2022/04/20 12:46:53;;;;;;;4.07;1.20;;;;;;;;;;5067100;28;20028;-75
2022/04/20 12:49:24;;;;;;;4.78;0.88;;;;;;;;;;5066533;28;20048;-75
2022/04/20 12:51:51;;;;;;;3.23;0.80;;;;;;;;;;5065277;28;20025;-75
2022/04/20 12:54:24;;;;;;;6.75;1.10;;;;;;;;;;5072702;28;20286;-75
2022/04/20 13:02:20;;;;;;;5.20;1.42;;;;;;;;;;5055908;28;20835;-75
2022/04/20 13:04:47;;;;;;;6.97;1.30;;;;;;;;;;5065132;28;20036;-75
2022/04/20 13:07:13;;;;;;;5.38;1.30;;;;;;;;;;5069892;28;20354;-75
2022/04/20 13:09:39;;;;;;;5.75;1.30;;;;;;;;;;5073510;28;20044;-75
2022/04/20 13:12:05;;;;;;;5.68;1.55;;;;;;;;;;5060657;28;20032;-75
2022/04/20 13:14:31;;;;;;;10.75;1.20;;;;;;;;;;5057616;28;20045;-75
2022/04/20 13:16:58;;;;;;;6.82;1.00;;;;;;;;;;5062175;28;20024;-75
2022/04/20 13:19:24;;;;;;;6.72;1.25;;;;;;;;;;5063014;28;20374;-75
2022/04/20 13:21:50;;;;;;;6.32;1.45;;;;;;;;;;5050316;28;20087;-75
2022/04/20 13:29:46;;;;;;;5.30;1.40;;;;;;;;;;5065171;28;20051;-75
2022/04/20 13:32:17;;;;;;;7.75;1.42;;;;;;;;;;5069865;28;20031;-75
2022/04/20 13:34:43;;;;;;;6.35;1.45;;;;;;;;;;5063760;28;20127;-75
2022/04/20 13:37:09;;;;;;;6.70;1.17;;;;;;;;;;5069854;28;20571;-75
2022/04/20 13:39:35;;;;;;;5.93;1.30;;;;;;;;;;5069111;28;20081;-75
2022/04/20 13:42:01;;;;;;;5.13;1.30;;;;;;;;;;5068183;28;20028;-75
2022/04/20 13:44:27;;;;;;;11.80;1.20;;;;;;;;;;5068558;28;20686;-75
2022/04/20 13:46:53;;;;;;;3.10;1.20;;;;;;;;;;5069274;28;20028;-75
2022/04/20 13:49:19;;;;;;;5.97;1.15;;;;;;;;;;5069117;28;20118;-75
2022/04/20 13:51:45;;;;;;;4.63;1.35;;;;;;;;;;5069185;28;20025;-75
2022/04/20 13:54:11;;;;;;;5.60;1.08;;;;;;;;;;5065977;28;20706;-75
2022/04/20 13:56:36;;;;;;;5.93;1.30;;;;;;;;;;5069448;28;20028;-75
2022/04/20 13:59:03;;;;;;;6.50;1.20;;;;;;;;;;5069562;28;20054;-75
2022/04/20 14:01:29;;;;;;;5.00;1.25;;;;;;;;;;5082451;28;20052;-75
2022/04/20 14:03:55;;;;;;;6.68;1.48;;;;;;;;;;5069531;28;20041;-75
2022/04/20 14:06:22;;;;;;;5.85;1.23;;;;;;;;;;5058180;28;20126;-75
2022/04/20 14:08:48;;;;;;;7.30;1.30;;;;;;;;;;5049651;28;20037;-75
2022/04/20 14:11:14;;;;;;;6.03;0.93;;;;;;;;;;5059812;28;20363;-75
2022/04/20 14:13:41;;;;;;;7.68;1.52;;;;;;;;;;5052692;28;20028;-75
2022/04/20 14:16:08;;;;;;;4.72;1.17;;;;;;;;;;5058451;28;20024;-75
2022/04/20 14:18:34;;;;;;;5.65;1.38;;;;;;;;;;5069623;28;20043;-75
2022/04/20 14:21:00;;;;;;;3.50;1.02;;;;;;;;;;5068482;28;20369;-75
2022/04/20 14:23:26;;;;;;;5.72;1.30;;;;;;;;;;5064935;28;20036;-75
2022/04/20 14:34:08;;;;;;;4.93;1.30;;;;;;;;;;5067132;28;20047;-75
2022/04/20 14:36:35;;;;;;;6.00;1.20;;;;;;;;;;5068099;28;20028;-75
2022/04/20 14:39:02;;;;;;;3.45;0.93;;;;;;;;;;5065696;28;20110;-75
2022/04/20 14:41:28;;;;;;;4.80;1.45;;;;;;;;;;5064326;28;20025;-75
2022/04/20 14:43:55;;;;;;;2.58;0.90;;;;;;;;;;5068835;28;20405;-75
2022/04/20 14:46:21;;;;;;;5.70;1.13;;;;;;;;;;5061679;28;20116;-75
2022/04/20 14:48:47;;;;;;;6.45;1.02;;;;;;;;;;5069387;28;20454;-75
2022/04/20 14:51:14;;;;;;;6.45;1.27;;;;;;;;;;5068600;28;20027;-75
2022/04/20 14:53:40;;;;;;;3.85;1.00;;;;;;;;;;5068601;28;20260;-75
2022/04/20 14:56:06;;;;;;;4.05;1.10;;;;;;;;;;5062328;28;20032;-75
2022/04/20 14:58:32;;;;;;;3.08;0.90;;;;;;;;;;5065603;28;20032;-75
2022/04/20 15:00:58;;;;;;;3.10;1.30;;;;;;;;;;5068672;28;20032;-75
2022/04/20 15:03:24;;;;;;;3.42;1.00;;;;;;;;;;5071371;28;20036;-76
2022/04/20 15:05:50;;;;;;;4.95;1.10;;;;;;;;;;5052318;28;20038;-75
2022/04/20 15:08:16;;;;;;;5.05;1.20;;;;;;;;;;5058850;28;20546;-75
2022/04/20 15:10:42;;;;;;;6.78;1.40;;;;;;;;;;5072516;28;20125;-75
2022/04/20 15:13:08;;;;;;;4.82;0.95;;;;;;;;;;5070912;28;20036;-75
2022/04/20 15:15:34;;;;;;;5.30;1.20;;;;;;;;;;5069464;28;20025;-75
2022/04/20 15:18:00;;;;;;;7.43;1.00;;;;;;;;;;5067541;28;20041;-75
2022/04/20 15:20:27;;;;;;;11.05;1.35;;;;;;;;;;5064751;28;20050;-75
2022/04/20 15:22:55;;;;;;;6.00;1.00;;;;;;;;;;5071927;28;20473;-75
2022/04/20 15:25:21;;;;;;;7.60;1.50;;;;;;;;;;5072505;28;20108;-75
2022/04/20 15:27:47;;;;;;;2.67;1.00;;;;;;;;;;5070763;28;20112;-75
2022/04/20 15:30:13;;;;;;;4.72;1.30;;;;;;;;;;5072341;28;20060;-75
2022/04/20 15:32:40;;;;;;;8.38;1.48;;;;;;;;;;5067931;28;20476;-75